createdAt,value
2018-11-28T00:04:16.331Z,40.90
2018-11-28T00:09:19.629Z,41.50
2018-11-28T00:14:22.864Z,41.80
2018-11-28T00:19:26.153Z,40.90
2018-11-28T00:24:29.374Z,42.00
2018-11-28T00:29:32.823Z,41.00
2018-11-28T00:34:36.215Z,41.60
2018-11-28T00:39:39.436Z,41.90
2018-11-28T00:44:42.650Z,40.80
2018-11-28T00:49:45.938Z,40.70
2018-11-28T00:54:49.251Z,39.90
2018-11-28T00:59:52.506Z,41.00
2018-11-28T01:04:55.738Z,41.10
2018-11-28T01:09:59.045Z,40.00
2018-11-28T01:15:02.312Z,42.50
2018-11-28T01:20:07.671Z,42.40
2018-11-28T01:25:13.717Z,41.50
2018-11-28T01:30:18.950Z,42.20
2018-11-28T01:35:22.638Z,45.50
2018-11-28T01:40:25.846Z,42.20
2018-11-28T01:45:29.063Z,45.70
2018-11-28T01:50:32.264Z,43.40
2018-11-28T01:55:35.495Z,43.30
2018-11-28T02:00:38.940Z,42.70
2018-11-28T02:05:42.182Z,42.70
2018-11-28T02:10:45.358Z,42.30
2018-11-28T02:15:48.588Z,41.60
2018-11-28T02:20:51.890Z,41.20
2018-11-28T02:25:55.128Z,44.50
2018-11-28T02:30:58.331Z,42.30
2018-11-28T02:36:01.680Z,41.60
2018-11-28T02:41:04.860Z,40.90
2018-11-28T02:46:19.489Z,43.70
2018-11-28T02:51:22.822Z,45.60
2018-11-28T02:56:26.213Z,46.00
2018-11-28T03:01:29.646Z,43.50
2018-11-28T03:06:32.819Z,41.00
2018-11-28T03:11:37.905Z,42.60
2018-11-28T03:16:41.118Z,42.50
2018-11-28T03:21:44.423Z,41.30
2018-11-28T03:26:47.826Z,43.60
2018-11-28T03:31:51.037Z,44.00
2018-11-28T03:36:54.272Z,44.40
2018-11-28T03:41:57.550Z,44.90
2018-11-28T03:47:00.881Z,42.80
2018-11-28T03:52:04.154Z,44.20
2018-11-28T03:57:07.689Z,41.30
2018-11-28T04:02:10.883Z,44.00
2018-11-28T04:07:14.079Z,43.60
2018-11-28T04:12:17.309Z,43.20
2018-11-28T04:17:20.554Z,42.60
2018-11-28T04:22:23.874Z,43.90
2018-11-28T04:27:27.085Z,42.10
2018-11-28T04:32:30.496Z,42.80
2018-11-28T04:37:33.783Z,42.50
2018-11-28T04:42:37.060Z,42.40
2018-11-28T04:47:40.303Z,44.60
2018-11-28T04:52:43.559Z,44.50
2018-11-28T04:57:47.036Z,45.40
2018-11-28T05:02:50.653Z,44.10
2018-11-28T05:07:54.163Z,43.40
2018-11-28T05:12:59.228Z,43.10
2018-11-28T05:18:02.415Z,41.50
2018-11-28T05:23:06.655Z,42.90
2018-11-28T05:28:09.931Z,42.80
2018-11-28T05:33:13.184Z,43.60
2018-11-28T05:38:16.717Z,41.30
2018-11-28T05:43:24.856Z,41.70
2018-11-28T05:48:28.089Z,40.40
2018-11-28T05:53:31.284Z,40.70
2018-11-28T05:58:34.512Z,40.20
2018-11-28T06:03:37.793Z,39.80
2018-11-28T06:08:41.152Z,42.10
2018-11-28T06:13:44.484Z,38.30
2018-11-28T06:18:48.690Z,41.00
2018-11-28T06:23:51.913Z,42.30
2018-11-28T06:28:55.184Z,41.40
2018-11-28T06:33:58.431Z,40.10
2018-11-28T06:39:01.879Z,40.80
2018-11-28T06:44:05.094Z,40.30
2018-11-28T06:49:08.530Z,40.10
2018-11-28T06:54:11.756Z,42.40
2018-11-28T06:59:15.046Z,39.90
2018-11-28T07:04:18.846Z,39.60
2018-11-28T07:09:22.129Z,40.90
2018-11-28T07:14:25.386Z,41.90
2018-11-28T07:19:28.624Z,43.10
2018-11-28T07:24:31.886Z,41.20
2018-11-28T07:29:35.433Z,42.60
2018-11-28T07:34:38.806Z,43.20
2018-11-28T07:39:42.145Z,43.30
2018-11-28T07:44:45.456Z,44.30
2018-11-28T07:49:48.694Z,43.20
2018-11-28T07:54:53.110Z,43.00
2018-11-28T07:59:56.342Z,42.60
2018-11-28T08:05:00.638Z,41.70
2018-11-28T08:10:04.138Z,43.90
2018-11-28T08:15:08.342Z,42.20
2018-11-28T08:20:11.638Z,41.30
2018-11-28T08:25:16.857Z,43.20
2018-11-28T08:30:23.146Z,41.70
2018-11-28T08:35:26.654Z,42.70
2018-11-28T08:40:30.010Z,43.00
2018-11-28T08:45:33.297Z,42.00
2018-11-28T08:50:37.761Z,41.80
2018-11-28T08:55:41.165Z,41.80
2018-11-28T09:00:44.564Z,42.60
2018-11-28T09:05:47.782Z,41.80
2018-11-28T09:10:51.087Z,41.60
2018-11-28T09:15:54.300Z,40.80
2018-11-28T09:20:57.625Z,40.40
2018-11-28T09:26:00.927Z,41.30
2018-11-28T09:31:04.340Z,39.70
2018-11-28T09:36:07.642Z,40.30
2018-11-28T09:41:10.980Z,39.90
2018-11-28T09:46:14.182Z,37.20
2018-11-28T09:51:17.508Z,37.10
2018-11-28T09:56:20.757Z,38.10
2018-11-28T10:01:23.971Z,38.00
2018-11-28T10:06:27.275Z,38.80
2018-11-28T10:11:30.531Z,37.70
2018-11-28T10:16:33.793Z,34.70
2018-11-28T10:21:37.122Z,38.80
2018-11-28T10:26:40.384Z,36.70
2018-11-28T10:31:43.658Z,39.60
2018-11-28T10:36:47.175Z,40.10
2018-11-28T10:41:50.444Z,39.00
2018-11-28T10:46:53.675Z,38.50
2018-11-28T10:51:57.035Z,37.30
2018-11-28T10:57:00.350Z,38.80
2018-11-28T11:02:09.219Z,35.90
2018-11-28T11:07:17.936Z,37.70
2018-11-28T11:12:26.715Z,41.00
2018-11-28T11:17:30.064Z,38.30
2018-11-28T11:22:33.341Z,39.30
2018-11-28T11:27:36.884Z,37.10
2018-11-28T11:32:40.138Z,34.40
2018-11-28T11:37:43.461Z,37.00
2018-11-28T11:42:46.835Z,41.60
2018-11-28T11:47:50.108Z,39.00
2018-11-28T11:52:53.556Z,39.50
2018-11-28T11:57:56.844Z,38.30
2018-11-28T12:03:08.715Z,37.10
2018-11-28T12:08:12.016Z,34.30
2018-11-28T12:13:15.297Z,35.80
2018-11-28T12:18:18.825Z,36.20
2018-11-28T12:23:22.127Z,39.80
2018-11-28T12:28:25.449Z,41.30
2018-11-28T12:33:28.658Z,39.20
2018-11-28T12:38:31.884Z,39.40
2018-11-28T12:43:35.172Z,38.20
2018-11-28T12:48:38.489Z,37.80
2018-11-28T12:53:41.859Z,38.20
2018-11-28T12:58:45.434Z,35.10
2018-11-28T13:03:48.695Z,36.80
2018-11-28T13:08:52.132Z,36.50
2018-11-28T13:13:55.407Z,37.90
2018-11-28T13:18:58.676Z,36.00
2018-11-28T13:24:01.995Z,38.90
2018-11-28T13:29:06.114Z,35.60
2018-11-28T13:34:09.448Z,35.90
2018-11-28T13:39:12.939Z,36.70
2018-11-28T13:44:16.280Z,40.20
2018-11-28T13:49:19.592Z,35.20
2018-11-28T13:54:23.087Z,35.20
2018-11-28T13:59:26.346Z,36.90
2018-11-28T14:04:29.931Z,37.80
2018-11-28T14:09:33.242Z,37.80
2018-11-28T14:14:36.637Z,38.70
2018-11-28T14:19:39.888Z,38.20
2018-11-28T14:24:43.460Z,36.50
2018-11-28T14:29:47.996Z,38.30
2018-11-28T14:34:51.549Z,39.90
2018-11-28T14:39:54.925Z,36.00
2018-11-28T14:44:58.206Z,37.30
2018-11-28T14:50:01.452Z,37.90
2018-11-28T14:55:07.055Z,36.50
2018-11-28T15:00:26.235Z,36.70
2018-11-28T15:05:37.234Z,36.20
2018-11-28T15:10:44.086Z,36.70
2018-11-28T15:15:47.516Z,35.70
2018-11-28T15:20:50.805Z,35.60
2018-11-28T15:25:54.343Z,35.40
2018-11-28T15:30:57.634Z,38.10
2018-11-28T15:36:00.925Z,37.40
2018-11-28T15:41:04.174Z,36.80
2018-11-28T15:46:07.572Z,36.90
2018-11-28T15:51:11.193Z,36.70
2018-11-28T15:56:14.392Z,37.30
2018-11-28T16:01:17.749Z,34.60
2018-11-28T16:06:20.985Z,39.00
2018-11-28T16:11:24.874Z,37.80
2018-11-28T16:16:28.112Z,37.30
2018-11-28T16:21:31.451Z,37.60
2018-11-28T16:26:34.658Z,36.00
2018-11-28T16:31:37.853Z,36.40
2018-11-28T16:36:41.058Z,38.60
2018-11-28T16:41:44.228Z,37.10
2018-11-28T16:46:47.435Z,35.20
2018-11-28T16:51:50.852Z,38.90
2018-11-28T16:56:54.553Z,37.50
2018-11-28T17:01:57.990Z,38.90
2018-11-28T17:07:01.268Z,36.50
2018-11-28T17:12:05.539Z,36.80
2018-11-28T17:17:08.811Z,35.80
2018-11-28T17:22:12.040Z,36.80
2018-11-28T17:27:15.463Z,35.70
2018-11-28T17:32:18.884Z,35.90
2018-11-28T17:37:22.298Z,36.50
2018-11-28T17:42:25.923Z,39.80
2018-11-28T17:47:29.437Z,36.40
2018-11-28T17:52:32.766Z,38.30
2018-11-28T17:57:36.068Z,38.60
2018-11-28T18:02:39.381Z,39.30
2018-11-28T18:07:42.896Z,37.50
2018-11-28T18:12:57.597Z,45.80
2018-11-28T18:18:01.695Z,46.60
2018-11-28T18:23:06.393Z,44.30
2018-11-28T18:28:09.763Z,39.60
2018-11-28T18:33:13.948Z,38.50
2018-11-28T18:38:17.265Z,37.60
2018-11-28T18:43:20.541Z,38.10
2018-11-28T18:48:24.051Z,36.00
2018-11-28T18:53:27.253Z,35.70
2018-11-28T18:58:30.643Z,34.80
2018-11-28T19:03:34.175Z,36.60
2018-11-28T19:08:37.407Z,34.70
2018-11-28T19:13:40.906Z,37.00
2018-11-28T19:18:44.314Z,35.30
2018-11-28T19:23:47.653Z,36.30
2018-11-28T19:28:51.455Z,36.70
2018-11-28T19:33:56.806Z,37.30
2018-11-28T19:39:00.110Z,36.50
2018-11-28T19:44:03.789Z,38.10
2018-11-28T19:49:07.322Z,40.00
2018-11-28T19:54:10.975Z,36.30
2018-11-28T19:59:15.530Z,37.10
2018-11-28T20:04:19.040Z,37.40
2018-11-28T20:09:22.633Z,36.80
2018-11-28T20:14:26.201Z,38.30
2018-11-28T20:19:29.712Z,40.70
2018-11-28T20:24:33.099Z,38.70
2018-11-28T20:29:36.923Z,36.60
2018-11-28T20:34:41.055Z,36.70
2018-11-28T20:39:44.446Z,36.70
2018-11-28T20:44:48.445Z,39.20
2018-11-28T20:49:52.845Z,39.50
2018-11-28T20:54:56.381Z,37.50
2018-11-28T20:59:59.801Z,37.40
2018-11-28T21:05:04.101Z,38.60
2018-11-28T21:10:16.852Z,37.30
2018-11-28T21:15:20.571Z,38.80
2018-11-28T21:20:24.036Z,35.20
2018-11-28T21:25:27.523Z,37.70
2018-11-28T21:30:30.923Z,37.10
2018-11-28T21:35:35.865Z,38.80
2018-11-28T21:40:39.475Z,38.40
2018-11-28T21:45:42.792Z,40.20
2018-11-28T21:50:46.172Z,38.80
2018-11-28T21:55:49.492Z,39.70
2018-11-28T22:00:52.806Z,38.60
2018-11-28T22:05:56.024Z,38.00
2018-11-28T22:10:59.326Z,38.70
2018-11-28T22:16:05.808Z,37.00
2018-11-28T22:21:09.989Z,37.80
2018-11-28T22:26:14.513Z,38.00
2018-11-28T22:31:18.963Z,39.90
2018-11-28T22:36:22.266Z,37.10
2018-11-28T22:41:25.516Z,38.00
2018-11-28T22:46:28.782Z,38.40
2018-11-28T22:51:32.033Z,37.70
2018-11-28T22:56:35.267Z,39.70
2018-11-28T23:03:57.512Z,39.80
2018-11-28T23:09:00.827Z,39.00
2018-11-28T23:14:04.956Z,38.40
2018-11-28T23:19:08.208Z,39.20
2018-11-28T23:24:11.416Z,39.10
2018-11-28T23:29:14.738Z,37.00
2018-11-28T23:34:18.054Z,36.20
2018-11-28T23:39:28.938Z,37.50
2018-11-28T23:44:32.617Z,37.80
2018-11-28T23:49:35.902Z,38.10
2018-11-28T23:54:39.148Z,38.10
2018-11-28T23:59:42.378Z,37.00
